createdAt,value
2022-08-05T00:00:46.238Z,41.98
2022-08-05T00:03:38.414Z,41.97
2022-08-05T00:04:38.372Z,41.97
2022-08-05T00:06:04.978Z,41.89
2022-08-05T00:09:38.405Z,41.99
2022-08-05T00:10:38.402Z,42.04
2022-08-05T00:11:49.320Z,41.89
2022-08-05T00:12:56.520Z,41.74
2022-08-05T00:13:39.977Z,41.71
2022-08-05T00:14:38.405Z,41.87
2022-08-05T00:15:55.301Z,41.65
2022-08-05T00:16:52.118Z,41.63
2022-08-05T00:17:38.399Z,41.63
2022-08-05T00:20:38.463Z,41.37
2022-08-05T00:21:38.421Z,41.36
2022-08-05T00:22:38.436Z,41.35
2022-08-05T00:26:38.458Z,41.10
2022-08-05T00:27:38.515Z,40.54
2022-08-05T00:30:38.446Z,39.98
2022-08-05T00:31:52.974Z,40.01
2022-08-05T00:32:38.477Z,40.14
2022-08-05T00:34:55.990Z,40.13
2022-08-05T00:34:56.560Z,39.96
2022-08-05T00:37:10.602Z,40.25
2022-08-05T00:37:52.328Z,40.19
2022-08-05T00:38:38.452Z,40.36
2022-08-05T00:39:44.486Z,40.47
2022-08-05T00:40:38.497Z,40.40
2022-08-05T00:41:51.421Z,40.47
2022-08-05T00:42:38.483Z,40.64
2022-08-05T00:43:47.101Z,40.94
2022-08-05T00:44:38.478Z,40.94
2022-08-05T00:45:43.714Z,41.46
2022-08-05T00:46:43.410Z,42.19
2022-08-05T00:47:56.508Z,43.93
2022-08-05T00:48:50.476Z,45.88
2022-08-05T00:49:51.177Z,45.15
2022-08-05T00:50:38.509Z,47.06
2022-08-05T00:51:51.640Z,48.12
2022-08-05T00:52:39.114Z,49.53
2022-08-05T00:53:45.330Z,51.22
2022-08-05T00:54:38.552Z,52.48
2022-08-05T00:55:43.537Z,51.19
2022-08-05T00:56:38.514Z,51.19
2022-08-05T00:57:55.367Z,53.78
2022-08-05T00:58:38.521Z,54.00
2022-08-05T00:59:44.650Z,54.17
2022-08-05T01:00:38.615Z,53.72
2022-08-05T01:01:48.262Z,53.43
2022-08-05T01:02:38.526Z,52.67
2022-08-05T01:03:38.599Z,55.31
2022-08-05T01:04:38.523Z,55.31
2022-08-05T01:05:38.533Z,56.68
2022-08-05T01:06:38.529Z,54.58
2022-08-05T01:08:29.706Z,53.32
2022-08-05T01:08:42.759Z,54.43
2022-08-05T01:10:38.541Z,54.88
2022-08-05T01:11:38.548Z,54.29
2022-08-05T01:12:38.552Z,53.69
2022-08-05T01:13:58.823Z,52.59
2022-08-05T01:14:38.550Z,52.90
2022-08-05T01:15:38.562Z,53.87
2022-08-05T01:16:38.600Z,53.14
2022-08-05T01:17:39.993Z,52.49
2022-08-05T01:20:01.880Z,49.51
2022-08-05T01:20:41.637Z,49.12
2022-08-05T01:21:38.635Z,49.12
2022-08-05T01:22:38.584Z,49.55
2022-08-05T01:23:38.598Z,49.56
2022-08-05T01:24:38.602Z,48.62
2022-08-05T01:25:40.152Z,47.94
2022-08-05T01:26:38.629Z,47.94
2022-08-05T01:27:50.651Z,48.83
2022-08-05T01:28:39.440Z,48.65
2022-08-05T01:29:38.590Z,47.54
2022-08-05T01:30:38.594Z,48.20
2022-08-05T01:31:42.705Z,48.86
2022-08-05T01:32:38.632Z,48.80
2022-08-05T01:33:38.609Z,48.51
2022-08-05T01:34:38.600Z,47.70
2022-08-05T01:35:51.920Z,47.57
2022-08-05T01:36:42.374Z,47.53
2022-08-05T01:37:44.529Z,48.28
2022-08-05T01:38:38.612Z,47.79
2022-08-05T01:39:47.560Z,48.20
2022-08-05T01:40:38.634Z,48.52
2022-08-05T01:41:38.671Z,49.04
2022-08-05T01:42:38.645Z,49.40
2022-08-05T01:43:38.645Z,49.40
2022-08-05T01:44:38.648Z,49.39
2022-08-05T01:45:43.119Z,49.53
2022-08-05T01:46:42.395Z,49.94
2022-08-05T01:47:39.944Z,49.77
2022-08-05T01:48:38.658Z,49.77
2022-08-05T01:50:01.976Z,50.07
2022-08-05T01:50:38.664Z,51.63
2022-08-05T01:51:38.716Z,50.84
2022-08-05T01:52:38.671Z,52.73
2022-08-05T01:53:55.035Z,52.73
2022-08-05T01:54:46.305Z,53.76
2022-08-05T01:55:38.652Z,54.15
2022-08-05T01:58:09.366Z,53.87
2022-08-05T01:58:10.898Z,55.75
2022-08-05T01:58:44.600Z,55.75
2022-08-05T01:59:38.675Z,56.57
2022-08-05T02:00:38.679Z,56.91
2022-08-05T02:01:40.123Z,57.86
2022-08-05T02:02:38.677Z,58.15
2022-08-05T02:03:38.693Z,57.74
2022-08-05T02:04:38.696Z,58.29
2022-08-05T02:05:38.695Z,57.96
2022-08-05T02:06:39.151Z,58.10
2022-08-05T02:07:38.688Z,57.93
2022-08-05T02:08:54.800Z,57.97
2022-08-05T02:09:38.710Z,58.05
2022-08-05T02:10:38.702Z,58.45
2022-08-05T02:11:42.277Z,57.59
2022-08-05T02:12:38.709Z,56.81
2022-08-05T02:13:53.518Z,56.73
2022-08-05T02:14:38.719Z,56.71
2022-08-05T02:15:38.734Z,56.05
2022-08-05T02:16:38.728Z,54.81
2022-08-05T02:18:31.264Z,55.26
2022-08-05T02:18:41.903Z,56.17
2022-08-05T02:19:47.413Z,55.32
2022-08-05T02:20:39.139Z,54.36
2022-08-05T02:21:43.401Z,54.68
2022-08-05T02:22:38.737Z,54.09
2022-08-05T02:23:38.748Z,53.91
2022-08-05T02:24:38.740Z,53.53
2022-08-05T02:26:38.761Z,53.04
2022-08-05T02:27:57.881Z,52.78
2022-08-05T02:28:38.762Z,52.72
2022-08-05T02:30:00.027Z,52.33
2022-08-05T02:30:38.774Z,52.33
2022-08-05T02:31:38.788Z,52.05
2022-08-05T02:33:39.287Z,52.17
2022-08-05T02:34:42.071Z,51.60
2022-08-05T02:35:49.927Z,51.60
2022-08-05T02:36:38.768Z,51.20
2022-08-05T02:37:38.847Z,50.36
2022-08-05T02:38:38.789Z,50.21
2022-08-05T02:39:41.269Z,50.21
2022-08-05T02:41:58.145Z,50.28
2022-08-05T02:42:38.783Z,50.32
2022-08-05T02:43:38.783Z,50.41
2022-08-05T02:44:38.786Z,50.24
2022-08-05T02:45:51.889Z,50.56
2022-08-05T02:46:43.853Z,50.33
2022-08-05T02:48:11.496Z,50.22
2022-08-05T02:48:38.800Z,49.91
2022-08-05T02:49:40.626Z,50.25
2022-08-05T02:50:38.851Z,49.90
2022-08-05T02:52:03.725Z,49.90
2022-08-05T02:52:38.823Z,49.87
2022-08-05T02:53:39.701Z,50.46
2022-08-05T02:54:41.186Z,50.46
2022-08-05T02:56:38.819Z,49.70
2022-08-05T02:58:20.087Z,49.37
2022-08-05T02:58:43.632Z,49.77
2022-08-05T02:59:50.144Z,50.59
2022-08-05T03:00:38.835Z,50.87
2022-08-05T03:01:38.937Z,50.28
2022-08-05T03:02:38.845Z,50.07
2022-08-05T03:04:03.360Z,50.23
2022-08-05T03:04:38.866Z,50.31
2022-08-05T03:06:54.854Z,50.99
2022-08-05T03:06:55.959Z,50.99
2022-08-05T03:08:00.612Z,51.51
2022-08-05T03:08:38.849Z,52.29
2022-08-05T03:09:43.927Z,52.55
2022-08-05T03:10:38.863Z,51.96
2022-08-05T03:11:55.164Z,51.83
2022-08-05T03:12:38.855Z,51.83
2022-08-05T03:15:38.873Z,51.78
2022-08-05T03:16:38.875Z,52.47
2022-08-05T03:17:41.631Z,52.75
2022-08-05T03:18:38.891Z,52.63
2022-08-05T03:21:41.706Z,51.95
2022-08-05T03:22:38.905Z,51.80
2022-08-05T03:23:38.902Z,51.93
2022-08-05T03:24:38.911Z,52.27
2022-08-05T03:26:04.941Z,52.11
2022-08-05T03:26:38.920Z,52.06
2022-08-05T03:27:39.508Z,52.16
2022-08-05T03:28:38.900Z,51.89
2022-08-05T03:29:46.065Z,52.28
2022-08-05T03:30:41.073Z,52.28
2022-08-05T03:31:56.978Z,52.50
2022-08-05T03:32:38.923Z,52.49
2022-08-05T03:33:51.068Z,52.69
2022-08-05T03:34:38.920Z,52.96
2022-08-05T03:36:38.927Z,53.22
2022-08-05T03:37:46.392Z,53.42
2022-08-05T03:38:38.936Z,53.43
2022-08-05T03:39:57.661Z,53.72
2022-08-05T03:40:39.164Z,53.56
2022-08-05T03:44:08.335Z,53.77
2022-08-05T03:45:57.645Z,53.80
2022-08-05T03:46:38.982Z,53.94
2022-08-05T03:47:41.268Z,54.30
2022-08-05T03:48:42.521Z,54.50
2022-08-05T03:50:38.951Z,54.09
2022-08-05T03:52:39.069Z,53.96
2022-08-05T03:54:59.203Z,53.96
2022-08-05T03:55:34.754Z,53.61
2022-08-05T03:55:53.871Z,53.59
2022-08-05T03:56:05.471Z,54.02
2022-08-05T03:56:41.275Z,53.72
2022-08-05T03:57:41.688Z,53.85
2022-08-05T03:58:41.087Z,54.01
2022-08-05T03:59:46.984Z,54.14
2022-08-05T04:00:39.007Z,53.88
2022-08-05T04:01:39.062Z,53.88
2022-08-05T04:02:47.890Z,53.81
2022-08-05T04:03:39.017Z,54.23
2022-08-05T04:04:38.998Z,54.44
2022-08-05T04:05:40.176Z,54.66
2022-08-05T04:06:47.802Z,54.74
2022-08-05T04:07:58.212Z,55.09
2022-08-05T04:08:39.021Z,55.28
2022-08-05T04:09:39.029Z,55.99
2022-08-05T04:10:39.022Z,56.29
2022-08-05T04:13:50.247Z,56.75
2022-08-05T04:14:39.017Z,56.75
2022-08-05T04:15:39.049Z,56.92
2022-08-05T04:16:39.056Z,57.44
2022-08-05T04:17:56.253Z,57.20
2022-08-05T04:18:39.037Z,57.49
2022-08-05T04:19:39.024Z,57.52
2022-08-05T04:20:41.314Z,57.38
2022-08-05T04:22:10.007Z,57.32
2022-08-05T04:22:39.047Z,57.41
2022-08-05T04:24:06.626Z,57.41
2022-08-05T04:24:44.526Z,58.07
2022-08-05T04:26:00.348Z,58.15
2022-08-05T04:26:39.060Z,58.15
2022-08-05T04:27:43.776Z,58.29
2022-08-05T04:28:39.062Z,58.38
2022-08-05T04:29:39.135Z,58.40
2022-08-05T04:30:39.077Z,58.40
2022-08-05T04:31:39.455Z,58.09
2022-08-05T04:32:39.158Z,58.26
2022-08-05T04:34:17.623Z,58.28
2022-08-05T04:34:42.964Z,58.37
2022-08-05T04:36:16.118Z,58.37
2022-08-05T04:36:45.729Z,57.91
2022-08-05T04:38:00.909Z,58.10
2022-08-05T04:38:40.221Z,58.14
2022-08-05T04:39:40.134Z,57.88
2022-08-05T04:40:39.111Z,57.81
2022-08-05T04:41:39.106Z,57.67
2022-08-05T04:42:39.106Z,57.78
2022-08-05T04:43:40.520Z,57.56
2022-08-05T04:44:39.111Z,57.37
2022-08-05T04:45:48.104Z,57.37
2022-08-05T04:46:39.111Z,57.34
2022-08-05T04:48:39.120Z,56.81
2022-08-05T04:50:02.025Z,57.14
2022-08-05T04:51:03.002Z,56.83
2022-08-05T04:51:39.126Z,56.94
2022-08-05T04:52:39.126Z,56.77
2022-08-05T04:53:39.138Z,56.78
2022-08-05T04:54:39.143Z,56.83
2022-08-05T04:56:14.947Z,56.58
2022-08-05T04:56:39.133Z,57.00
2022-08-05T04:57:39.144Z,56.73
2022-08-05T04:58:39.141Z,57.12
2022-08-05T04:59:40.717Z,57.42
2022-08-05T05:00:39.137Z,57.42
2022-08-05T05:02:08.263Z,57.62
2022-08-05T05:02:43.095Z,57.49
2022-08-05T05:03:42.158Z,57.49
2022-08-05T05:04:47.581Z,57.30
2022-08-05T05:06:36.656Z,57.20
2022-08-05T05:07:39.271Z,57.33
2022-08-05T05:08:42.833Z,57.44
2022-08-05T05:09:39.184Z,57.44
2022-08-05T05:10:39.168Z,57.31
2022-08-05T05:11:52.902Z,57.06
2022-08-05T05:12:39.181Z,56.79
2022-08-05T05:13:43.318Z,56.87
2022-08-05T05:14:49.352Z,56.93
2022-08-05T05:15:54.424Z,56.93
2022-08-05T05:16:39.178Z,56.90
2022-08-05T05:17:55.939Z,56.98
2022-08-05T05:18:39.192Z,56.90
2022-08-05T05:19:44.314Z,56.91
2022-08-05T05:20:39.184Z,56.70
2022-08-05T05:21:39.186Z,56.50
2022-08-05T05:22:41.007Z,56.43
2022-08-05T05:24:03.907Z,56.54
2022-08-05T05:24:57.352Z,56.46
2022-08-05T05:25:41.031Z,56.21
2022-08-05T05:26:39.696Z,56.27
2022-08-05T05:27:45.422Z,56.27
2022-08-05T05:28:42.795Z,56.18
2022-08-05T05:30:03.423Z,55.70
2022-08-05T05:30:39.228Z,55.43
2022-08-05T05:32:39.231Z,55.08
2022-08-05T05:34:39.241Z,55.08
2022-08-05T05:35:42.454Z,54.61
2022-08-05T05:36:39.252Z,54.61
2022-08-05T05:37:59.382Z,54.54
2022-08-05T05:38:39.263Z,54.71
2022-08-05T05:39:43.288Z,54.75
2022-08-05T05:40:43.594Z,54.75
2022-08-05T05:41:40.590Z,54.78
2022-08-05T05:42:39.252Z,54.66
2022-08-05T05:43:56.905Z,54.46
2022-08-05T05:44:43.194Z,54.10
2022-08-05T05:45:39.291Z,54.20
2022-08-05T05:46:39.296Z,54.12
2022-08-05T05:48:07.196Z,54.05
2022-08-05T05:48:39.281Z,53.71
2022-08-05T05:49:39.285Z,53.72
2022-08-05T05:50:41.083Z,53.31
2022-08-05T05:51:50.021Z,53.39
2022-08-05T05:52:40.661Z,53.07
2022-08-05T05:53:54.496Z,52.92
2022-08-05T05:54:50.128Z,52.57
2022-08-05T05:55:51.526Z,52.59
2022-08-05T05:56:39.312Z,52.11
2022-08-05T05:57:52.390Z,51.82
2022-08-05T05:58:39.291Z,51.81
2022-08-05T05:59:40.123Z,51.48
2022-08-05T06:00:39.300Z,50.79
2022-08-05T06:01:39.822Z,50.71
2022-08-05T06:02:39.307Z,50.62
2022-08-05T06:03:53.731Z,50.10
2022-08-05T06:04:39.386Z,49.54
2022-08-05T06:05:39.355Z,49.58
2022-08-05T06:06:39.316Z,49.88
2022-08-05T06:07:42.164Z,48.86
2022-08-05T06:08:39.694Z,49.52
2022-08-05T06:10:00.046Z,50.01
2022-08-05T06:10:49.068Z,50.03
2022-08-05T06:11:39.531Z,50.23
2022-08-05T06:12:42.206Z,50.59
2022-08-05T06:13:40.888Z,49.94
2022-08-05T06:14:40.133Z,49.99
2022-08-05T06:16:29.280Z,50.09
2022-08-05T06:16:43.348Z,50.17
2022-08-05T06:17:52.880Z,50.17
2022-08-05T06:18:39.495Z,49.71
2022-08-05T06:19:39.353Z,50.06
2022-08-05T06:20:39.344Z,50.09
2022-08-05T06:21:42.885Z,49.54
2022-08-05T06:22:40.394Z,49.40
2022-08-05T06:23:43.970Z,49.97
2022-08-05T06:24:39.385Z,49.90
2022-08-05T06:26:12.746Z,49.90
2022-08-05T06:26:39.354Z,49.48
2022-08-05T06:28:10.624Z,50.06
2022-08-05T06:28:39.380Z,49.19
2022-08-05T06:29:51.056Z,49.38
2022-08-05T06:30:39.396Z,49.55
2022-08-05T06:31:39.415Z,49.12
2022-08-05T06:32:39.400Z,49.12
2022-08-05T06:34:07.373Z,49.27
2022-08-05T06:36:03.408Z,49.05
2022-08-05T06:36:57.495Z,49.05
2022-08-05T06:37:57.666Z,48.92
2022-08-05T06:38:39.433Z,48.97
2022-08-05T06:39:39.496Z,47.91
2022-08-05T06:41:41.327Z,47.26
2022-08-05T06:42:39.780Z,47.36
2022-08-05T06:43:58.875Z,47.12
2022-08-05T06:44:39.423Z,46.67
2022-08-05T06:46:39.434Z,46.97
2022-08-05T06:48:13.795Z,46.88
2022-08-05T06:48:55.259Z,46.76
2022-08-05T06:50:00.467Z,46.75
2022-08-05T06:50:39.432Z,46.42
2022-08-05T06:52:40.541Z,46.34
2022-08-05T06:53:43.552Z,45.61
2022-08-05T06:54:39.479Z,45.61
2022-08-05T06:56:39.450Z,45.48
2022-08-05T06:58:03.108Z,45.46
2022-08-05T06:58:39.717Z,45.46
2022-08-05T06:59:42.379Z,45.28
2022-08-05T07:00:39.528Z,44.89
2022-08-05T07:01:40.725Z,44.51
2022-08-05T07:02:39.497Z,43.95
2022-08-05T07:03:39.461Z,43.30
2022-08-05T07:04:39.475Z,42.78
2022-08-05T07:05:41.122Z,42.70
2022-08-05T07:06:39.485Z,42.40
2022-08-05T07:07:43.005Z,41.90
2022-08-05T07:08:39.502Z,41.14
2022-08-05T07:09:40.459Z,41.14
2022-08-05T07:10:39.488Z,40.90
2022-08-05T07:11:39.860Z,40.97
2022-08-05T07:12:39.503Z,40.79
2022-08-05T07:13:59.296Z,40.76
2022-08-05T07:14:39.489Z,40.53
2022-08-05T07:16:01.966Z,40.47
2022-08-05T07:18:00.541Z,40.39
2022-08-05T07:18:08.485Z,41.07
2022-08-05T07:20:32.150Z,40.89
2022-08-05T07:20:39.522Z,41.24
2022-08-05T07:22:39.538Z,40.87
2022-08-05T07:24:43.998Z,41.26
2022-08-05T07:25:56.067Z,41.31
2022-08-05T07:26:39.522Z,41.00
2022-08-05T07:27:57.489Z,40.93
2022-08-05T07:28:39.542Z,41.40
2022-08-05T07:30:27.291Z,40.87
2022-08-05T07:30:43.733Z,41.61
2022-08-05T07:31:40.786Z,41.61
2022-08-05T07:32:39.585Z,41.73
2022-08-05T07:33:39.573Z,42.21
2022-08-05T07:34:42.287Z,42.21
2022-08-05T07:36:05.385Z,43.22
2022-08-05T07:36:39.551Z,43.22
2022-08-05T07:37:39.609Z,43.30
2022-08-05T07:38:43.654Z,43.17
2022-08-05T07:40:39.626Z,43.35
2022-08-05T07:42:13.130Z,43.29
2022-08-05T07:42:39.596Z,43.46
2022-08-05T07:43:39.579Z,42.80
2022-08-05T07:44:39.640Z,42.42
2022-08-05T07:45:57.635Z,42.42
2022-08-05T07:46:39.610Z,41.76
2022-08-05T07:47:42.049Z,41.76
2022-08-05T07:49:02.029Z,41.11
2022-08-05T07:49:43.593Z,40.61
2022-08-05T07:50:39.628Z,41.23
2022-08-05T07:51:40.848Z,41.23
2022-08-05T07:52:39.621Z,41.04
2022-08-05T07:53:50.230Z,40.44
2022-08-05T07:54:41.398Z,40.33
2022-08-05T07:55:44.226Z,41.00
2022-08-05T07:57:02.295Z,40.49
2022-08-05T07:57:55.288Z,40.96
2022-08-05T07:58:57.435Z,41.13
2022-08-05T07:59:40.979Z,41.37
2022-08-05T08:00:39.672Z,41.32
2022-08-05T08:01:41.649Z,41.26
2022-08-05T08:03:13.365Z,41.17
2022-08-05T08:03:44.476Z,41.14
2022-08-05T08:04:39.637Z,40.67
2022-08-05T08:05:40.631Z,40.34
2022-08-05T08:06:39.655Z,40.50
2022-08-05T08:07:58.991Z,39.86
2022-08-05T08:08:39.638Z,39.86
2022-08-05T08:09:39.652Z,39.66
2022-08-05T08:10:39.660Z,39.37
2022-08-05T08:11:50.268Z,38.45
2022-08-05T08:12:49.813Z,38.86
2022-08-05T08:13:43.018Z,38.86
2022-08-05T08:14:40.840Z,39.24
2022-08-05T08:16:35.167Z,39.89
2022-08-05T08:16:50.138Z,39.31
2022-08-05T08:17:39.670Z,39.23
2022-08-05T08:18:39.708Z,39.44
2022-08-05T08:20:43.036Z,39.49
2022-08-05T08:20:59.832Z,39.60
2022-08-05T08:22:39.683Z,39.76
2022-08-05T08:24:02.763Z,39.78
2022-08-05T08:24:51.460Z,39.65
2022-08-05T08:25:59.691Z,39.35
2022-08-05T08:26:39.705Z,39.35
2022-08-05T08:27:44.851Z,39.18
2022-08-05T08:28:55.091Z,38.75
2022-08-05T08:30:05.480Z,38.75
2022-08-05T08:30:47.428Z,38.52
2022-08-05T08:31:39.711Z,38.46
2022-08-05T08:32:39.856Z,37.76
2022-08-05T08:33:39.705Z,37.01
2022-08-05T08:34:39.726Z,35.54
2022-08-05T08:35:41.336Z,35.30
2022-08-05T08:36:47.626Z,35.24
2022-08-05T08:37:39.715Z,35.05
2022-08-05T08:38:39.766Z,34.56
2022-08-05T08:39:49.520Z,34.54
2022-08-05T08:40:39.729Z,34.46
2022-08-05T08:41:52.525Z,33.73
2022-08-05T08:42:50.519Z,33.30
2022-08-05T08:45:16.775Z,33.96
2022-08-05T08:45:22.578Z,32.48
2022-08-05T08:45:39.738Z,32.48
2022-08-05T08:46:39.777Z,32.49
2022-08-05T08:48:06.298Z,32.96
2022-08-05T08:49:04.937Z,32.96
2022-08-05T08:50:05.801Z,32.66
2022-08-05T08:51:21.941Z,32.91
2022-08-05T08:52:03.098Z,32.44
2022-08-05T08:52:39.761Z,32.86
2022-08-05T08:53:44.320Z,33.28
2022-08-05T08:54:39.773Z,33.11
2022-08-05T08:56:03.920Z,32.59
2022-08-05T08:56:39.769Z,32.43
2022-08-05T08:57:42.355Z,32.28
2022-08-05T08:58:44.527Z,32.42
2022-08-05T08:59:41.967Z,32.58
2022-08-05T09:00:39.861Z,31.71
2022-08-05T09:01:42.556Z,31.42
2022-08-05T09:02:39.779Z,31.21
2022-08-05T09:03:45.012Z,31.40
2022-08-05T09:04:58.435Z,31.40
2022-08-05T09:06:07.877Z,31.22
2022-08-05T09:06:39.815Z,31.70
2022-08-05T09:07:57.129Z,31.70
2022-08-05T09:08:40.524Z,31.36
2022-08-05T09:09:39.825Z,31.95
2022-08-05T09:10:40.246Z,31.95
2022-08-05T09:11:51.504Z,31.74
2022-08-05T09:12:39.807Z,31.70
2022-08-05T09:14:09.786Z,31.55
2022-08-05T09:14:56.816Z,31.50
2022-08-05T09:15:39.821Z,30.94
2022-08-05T09:16:39.828Z,30.79
2022-08-05T09:17:43.173Z,30.61
2022-08-05T09:18:42.855Z,30.92
2022-08-05T09:20:01.420Z,30.53
2022-08-05T09:20:39.831Z,30.53
2022-08-05T09:22:18.505Z,31.25
2022-08-05T09:22:40.116Z,31.25
2022-08-05T09:23:43.665Z,31.09
2022-08-05T09:24:39.849Z,30.71
2022-08-05T09:26:03.368Z,30.94
2022-08-05T09:26:39.842Z,31.12
2022-08-05T09:28:04.449Z,31.04
2022-08-05T09:28:39.871Z,30.61
2022-08-05T09:29:47.712Z,30.90
2022-08-05T09:32:40.226Z,28.93
2022-08-05T09:32:46.345Z,29.20
2022-08-05T09:33:39.922Z,29.55
2022-08-05T09:34:39.900Z,29.51
2022-08-05T09:35:39.911Z,29.37
2022-08-05T09:36:54.742Z,29.37
2022-08-05T09:38:16.536Z,29.55
2022-08-05T09:38:39.877Z,29.15
2022-08-05T09:39:45.554Z,29.97
2022-08-05T09:40:39.893Z,30.57
2022-08-05T09:41:39.893Z,31.06
2022-08-05T09:42:39.896Z,31.43
2022-08-05T09:43:41.073Z,31.40
2022-08-05T09:44:39.888Z,31.64
2022-08-05T09:46:07.169Z,31.74
2022-08-05T09:46:39.907Z,31.33
2022-08-05T09:47:54.938Z,30.62
2022-08-05T09:48:39.916Z,30.62
2022-08-05T09:49:40.500Z,30.79
2022-08-05T09:50:44.882Z,31.17
2022-08-05T09:51:40.098Z,31.60
2022-08-05T09:52:45.130Z,32.08
2022-08-05T09:53:54.794Z,32.09
2022-08-05T09:54:39.918Z,32.67
2022-08-05T09:55:56.993Z,33.16
2022-08-05T09:56:39.946Z,32.82
2022-08-05T09:57:39.933Z,32.19
2022-08-05T09:58:44.631Z,32.51
2022-08-05T09:59:39.948Z,32.51
2022-08-05T10:01:39.931Z,32.66
2022-08-05T10:02:39.982Z,31.46
2022-08-05T10:03:58.683Z,31.95
2022-08-05T10:04:39.975Z,32.22
2022-08-05T10:05:39.947Z,32.30
2022-08-05T10:06:39.970Z,32.18
2022-08-05T10:08:10.449Z,32.04
2022-08-05T10:08:42.487Z,32.33
2022-08-05T10:09:44.840Z,32.52
2022-08-05T10:10:39.975Z,32.38
2022-08-05T10:11:39.976Z,31.81
2022-08-05T10:12:49.490Z,32.22
2022-08-05T10:13:47.313Z,32.26
2022-08-05T10:14:39.972Z,32.23
2022-08-05T10:15:41.297Z,32.35
2022-08-05T10:16:43.105Z,32.70
2022-08-05T10:17:42.414Z,32.58
2022-08-05T10:18:39.995Z,31.34
2022-08-05T10:20:04.361Z,31.34
2022-08-05T10:20:40.009Z,30.60
2022-08-05T10:21:41.197Z,30.56
2022-08-05T10:22:42.920Z,30.70
2022-08-05T10:23:55.665Z,30.51
2022-08-05T10:24:40.000Z,30.32
2022-08-05T10:25:40.010Z,30.79
2022-08-05T10:26:51.953Z,31.07
2022-08-05T10:28:12.981Z,31.16
2022-08-05T10:28:40.014Z,31.66
2022-08-05T10:30:41.227Z,31.13
2022-08-05T10:31:20.945Z,31.33
2022-08-05T10:32:53.219Z,30.74
2022-08-05T10:32:53.684Z,31.04
2022-08-05T10:33:40.071Z,31.12
2022-08-05T10:34:40.739Z,30.93
2022-08-05T10:35:46.673Z,31.90
2022-08-05T10:36:40.081Z,31.90
2022-08-05T10:37:44.962Z,31.75
2022-08-05T10:38:40.031Z,32.07
2022-08-05T10:39:59.180Z,32.00
2022-08-05T10:40:43.506Z,31.57
2022-08-05T10:41:46.697Z,31.79
2022-08-05T10:42:40.060Z,31.93
2022-08-05T10:43:40.056Z,31.99
2022-08-05T10:44:41.975Z,31.92
2022-08-05T10:45:46.100Z,31.92
2022-08-05T10:46:40.172Z,32.02
2022-08-05T10:48:31.478Z,32.02
2022-08-05T10:48:31.710Z,31.52
2022-08-05T10:48:56.886Z,31.51
2022-08-05T10:49:49.131Z,31.51
2022-08-05T10:50:50.439Z,32.33
2022-08-05T10:51:41.089Z,32.78
2022-08-05T10:52:10.359Z,32.78
2022-08-05T10:52:40.128Z,32.78
2022-08-05T10:53:45.126Z,33.16
2022-08-05T10:54:57.034Z,32.79
2022-08-05T10:56:03.700Z,32.79
2022-08-05T10:56:41.748Z,33.20
2022-08-05T10:57:45.890Z,34.03
2022-08-05T11:00:02.127Z,33.38
2022-08-05T11:00:03.257Z,34.03
2022-08-05T11:00:19.688Z,33.38
2022-08-05T11:00:55.389Z,33.38
2022-08-05T11:01:54.578Z,33.38
2022-08-05T11:02:53.011Z,33.08
2022-08-05T11:03:23.557Z,33.08
2022-08-05T11:04:56.653Z,33.08
2022-08-05T11:05:08.760Z,32.46
2022-08-05T11:05:50.558Z,32.62
2022-08-05T11:06:40.122Z,32.62
2022-08-05T11:08:02.967Z,32.28
2022-08-05T11:08:40.143Z,32.40
2022-08-05T11:09:46.092Z,32.16
2022-08-05T11:10:50.453Z,32.16
2022-08-05T11:11:44.729Z,31.68
2022-08-05T11:13:40.116Z,31.44
2022-08-05T11:15:11.515Z,30.60
2022-08-05T11:15:59.523Z,31.01
2022-08-05T11:16:56.009Z,31.19
2022-08-05T11:18:07.473Z,30.85
2022-08-05T11:18:40.139Z,30.67
2022-08-05T11:20:11.257Z,30.38
2022-08-05T11:20:43.952Z,29.93
2022-08-05T11:21:48.899Z,29.80
2022-08-05T11:22:42.365Z,29.67
2022-08-05T11:24:04.962Z,29.67
2022-08-05T11:24:40.162Z,29.88
2022-08-05T11:26:04.815Z,29.69
2022-08-05T11:26:40.410Z,29.61
2022-08-05T11:27:50.914Z,29.43
2022-08-05T11:28:40.251Z,29.30
2022-08-05T11:30:40.185Z,29.16
2022-08-05T11:31:54.064Z,28.36
2022-08-05T11:32:40.216Z,28.83
2022-08-05T11:33:46.041Z,29.40
2022-08-05T11:34:51.765Z,29.46
2022-08-05T11:35:40.210Z,29.46
2022-08-05T11:36:42.711Z,29.34
2022-08-05T11:38:26.768Z,29.47
2022-08-05T11:38:45.934Z,28.66
2022-08-05T11:39:40.248Z,28.66
2022-08-05T11:40:40.207Z,28.67
2022-08-05T11:41:56.329Z,28.56
2022-08-05T11:42:40.633Z,29.48
2022-08-05T11:44:04.950Z,29.83
2022-08-05T11:44:52.894Z,30.27
2022-08-05T11:46:29.889Z,30.60
2022-08-05T11:47:10.011Z,31.44
2022-08-05T11:47:48.491Z,31.20
2022-08-05T11:48:40.316Z,31.20
2022-08-05T11:49:51.022Z,31.31
2022-08-05T11:50:40.283Z,31.31
2022-08-05T11:51:44.539Z,31.02
2022-08-05T11:52:40.256Z,31.15
2022-08-05T11:53:40.841Z,30.52
2022-08-05T11:54:40.412Z,30.70
2022-08-05T11:55:40.258Z,30.08
2022-08-05T11:56:40.669Z,30.17
2022-08-05T11:58:10.188Z,29.81
2022-08-05T11:58:40.265Z,28.88
2022-08-05T11:59:42.050Z,29.08
2022-08-05T12:00:41.275Z,28.74
2022-08-05T12:01:40.298Z,28.82
2022-08-05T12:02:40.378Z,28.55
2022-08-05T12:03:40.344Z,29.05
2022-08-05T12:04:40.283Z,28.79
2022-08-05T12:05:40.295Z,29.05
2022-08-05T12:06:40.302Z,28.00
2022-08-05T12:08:03.732Z,27.52
2022-08-05T12:08:40.318Z,28.46
2022-08-05T12:09:53.278Z,27.65
2022-08-05T12:10:45.435Z,27.31
2022-08-05T12:11:41.766Z,27.06
2022-08-05T12:12:40.301Z,27.41
2022-08-05T12:13:48.627Z,27.52
2022-08-05T12:14:40.304Z,26.81
2022-08-05T12:15:40.320Z,27.77
2022-08-05T12:16:40.303Z,27.31
2022-08-05T12:18:04.342Z,26.55
2022-08-05T12:18:40.379Z,26.33
2022-08-05T12:20:25.655Z,26.70
2022-08-05T12:20:40.623Z,26.70
2022-08-05T12:21:40.351Z,27.23
2022-08-05T12:22:40.331Z,27.29
2022-08-05T12:23:43.154Z,27.56
2022-08-05T12:24:40.364Z,27.56
2022-08-05T12:25:40.334Z,27.79
2022-08-05T12:26:45.386Z,27.94
2022-08-05T12:27:52.951Z,29.11
2022-08-05T12:28:40.334Z,28.67
2022-08-05T12:29:40.347Z,28.82
2022-08-05T12:30:45.930Z,28.44
2022-08-05T12:31:43.658Z,28.30
2022-08-05T12:32:40.340Z,28.38
2022-08-05T12:33:40.384Z,28.03
2022-08-05T12:34:40.360Z,27.87
2022-08-05T12:35:40.348Z,27.98
2022-08-05T12:36:40.428Z,27.88
2022-08-05T12:37:40.358Z,27.57
2022-08-05T12:38:41.096Z,27.68
2022-08-05T12:39:40.411Z,27.44
2022-08-05T12:40:44.152Z,27.16
2022-08-05T12:41:43.898Z,27.11
2022-08-05T12:42:40.387Z,27.30
2022-08-05T12:43:40.405Z,26.98
2022-08-05T12:44:40.871Z,26.86
2022-08-05T12:45:48.269Z,27.56
2022-08-05T12:46:40.386Z,27.42
2022-08-05T12:48:01.050Z,27.38
2022-08-05T12:48:40.389Z,27.02
2022-08-05T12:50:04.782Z,27.34
2022-08-05T12:50:40.397Z,27.10
2022-08-05T12:52:14.113Z,27.58
2022-08-05T12:52:42.197Z,27.61
2022-08-05T12:53:40.436Z,27.37
2022-08-05T12:54:40.427Z,27.84
2022-08-05T12:55:40.415Z,27.84
2022-08-05T12:56:40.428Z,27.31
2022-08-05T12:58:38.494Z,27.40
2022-08-05T12:58:53.870Z,26.99
2022-08-05T13:00:08.689Z,26.76
2022-08-05T13:02:00.259Z,26.87
2022-08-05T13:02:00.630Z,26.87
2022-08-05T13:02:40.923Z,26.75
2022-08-05T13:03:43.017Z,26.59
2022-08-05T13:04:41.805Z,27.08
2022-08-05T13:05:40.464Z,26.92
2022-08-05T13:08:00.204Z,26.64
2022-08-05T13:08:40.498Z,26.85
2022-08-05T13:09:40.454Z,26.58
2022-08-05T13:10:50.391Z,26.18
2022-08-05T13:12:01.747Z,26.11
2022-08-05T13:12:50.789Z,26.55
2022-08-05T13:14:05.547Z,25.75
2022-08-05T13:14:40.474Z,25.98
2022-08-05T13:15:50.270Z,25.45
2022-08-05T13:16:40.472Z,25.16
2022-08-05T13:17:41.904Z,26.26
2022-08-05T13:18:40.470Z,26.50
2022-08-05T13:19:51.939Z,26.62
2022-08-05T13:20:40.682Z,25.98
2022-08-05T13:21:47.917Z,26.25
2022-08-05T13:22:40.497Z,26.47
2022-08-05T13:23:50.992Z,26.53
2022-08-05T13:24:57.164Z,26.96
2022-08-05T13:25:52.033Z,26.90
2022-08-05T13:26:40.500Z,27.03
2022-08-05T13:27:40.856Z,27.03
2022-08-05T13:28:43.910Z,27.27
2022-08-05T13:29:40.517Z,27.27
2022-08-05T13:30:40.510Z,27.36
2022-08-05T13:32:04.451Z,27.19
2022-08-05T13:32:42.196Z,27.23
2022-08-05T13:34:24.191Z,27.20
2022-08-05T13:34:40.907Z,26.89
2022-08-05T13:35:47.363Z,26.54
2022-08-05T13:36:40.523Z,26.60
2022-08-05T13:37:40.978Z,26.56